createdAt,value
2018-08-25T00:00:06.864Z,1003.41
2018-08-25T00:00:42.031Z,1003.43
2018-08-25T00:01:17.492Z,1003.44
2018-08-25T00:01:53.088Z,1003.41
2018-08-25T00:02:28.432Z,1003.36
2018-08-25T00:03:03.754Z,1003.37
2018-08-25T00:03:39.126Z,1003.36
2018-08-25T00:04:14.666Z,1003.34
2018-08-25T00:04:49.948Z,1003.31
2018-08-25T00:05:25.504Z,1003.31
2018-08-25T00:06:00.915Z,1003.31
2018-08-25T00:06:36.502Z,1003.29
2018-08-25T00:07:12.250Z,1003.30
2018-08-25T00:07:47.614Z,1003.29
2018-08-25T00:08:22.940Z,1003.25
2018-08-25T00:08:58.223Z,1003.26
2018-08-25T00:09:33.711Z,1003.28
2018-08-25T00:10:09.163Z,1003.30
2018-08-25T00:10:44.498Z,1003.26
2018-08-25T00:11:19.866Z,1003.26
2018-08-25T00:11:55.204Z,1003.25
2018-08-25T00:12:30.797Z,1003.24
2018-08-25T00:13:06.013Z,1003.30
2018-08-25T00:13:41.561Z,1003.24
2018-08-25T00:14:16.777Z,1003.22
2018-08-25T00:14:52.070Z,1003.24
2018-08-25T00:15:27.741Z,1003.23
2018-08-25T00:16:03.291Z,1003.24
2018-08-25T00:16:38.864Z,1003.19
2018-08-25T00:17:14.116Z,1003.21
2018-08-25T00:17:49.876Z,1003.19
2018-08-25T00:18:25.247Z,1003.17
2018-08-25T00:19:01.075Z,1003.20
2018-08-25T00:19:36.685Z,1003.21
2018-08-25T00:20:11.929Z,1003.21
2018-08-25T00:20:47.371Z,1003.18
2018-08-25T00:21:22.513Z,1003.20
2018-08-25T00:21:57.794Z,1003.22
2018-08-25T00:22:33.156Z,1003.17
2018-08-25T00:23:08.943Z,1003.15
2018-08-25T00:23:44.690Z,1003.14
2018-08-25T00:24:20.021Z,1003.18
2018-08-25T00:24:55.559Z,1003.10
2018-08-25T00:25:30.834Z,1003.11
2018-08-25T00:26:06.305Z,1003.07
2018-08-25T00:26:42.095Z,1003.10
2018-08-25T00:27:17.517Z,1003.11
2018-08-25T00:27:52.900Z,1003.05
2018-08-25T00:28:28.119Z,1003.06
2018-08-25T00:29:03.390Z,1003.07
2018-08-25T00:29:39.437Z,1003.03
2018-08-25T00:30:14.788Z,1003.04
2018-08-25T00:30:50.333Z,1003.02
2018-08-25T00:31:25.564Z,1003.04
2018-08-25T00:32:01.133Z,1003.01
2018-08-25T00:32:36.394Z,1003.03
2018-08-25T00:33:11.716Z,1003.04
2018-08-25T00:33:47.063Z,1003.01
2018-08-25T00:34:22.222Z,1003.01
2018-08-25T00:34:57.530Z,1002.99
2018-08-25T00:35:33.176Z,1003.01
2018-08-25T00:36:08.816Z,1003.02
2018-08-25T00:36:44.475Z,1002.98
2018-08-25T00:37:20.039Z,1002.99
2018-08-25T00:37:55.182Z,1002.95
2018-08-25T00:38:30.113Z,1002.98
2018-08-25T00:39:05.576Z,1002.95
2018-08-25T00:39:40.956Z,1002.92
2018-08-25T00:40:16.277Z,1002.92
2018-08-25T00:40:51.820Z,1002.94
2018-08-25T00:41:27.345Z,1002.86
2018-08-25T00:42:02.831Z,1002.84
2018-08-25T00:42:38.887Z,1002.85
2018-08-25T00:43:14.393Z,1002.88
2018-08-25T00:43:50.295Z,1002.88
2018-08-25T00:44:26.293Z,1002.85
2018-08-25T00:45:01.745Z,1002.87
2018-08-25T00:45:37.929Z,1002.81
2018-08-25T00:46:13.359Z,1002.83
2018-08-25T00:46:48.710Z,1002.86
2018-08-25T00:47:24.234Z,1002.83
2018-08-25T00:47:59.701Z,1002.80
2018-08-25T00:48:35.240Z,1002.85
2018-08-25T00:49:10.361Z,1002.81
2018-08-25T00:49:45.724Z,1002.84
2018-08-25T00:50:21.060Z,1002.78
2018-08-25T00:50:56.518Z,1002.81
2018-08-25T00:51:32.183Z,1002.75
2018-08-25T00:52:07.851Z,1002.77
2018-08-25T00:52:44.741Z,1002.78
2018-08-25T00:53:20.207Z,1002.77
2018-08-25T00:53:55.371Z,1002.73
2018-08-25T00:54:30.908Z,1002.71
2018-08-25T00:55:06.251Z,1002.73
2018-08-25T00:55:41.594Z,1002.68
2018-08-25T00:56:16.849Z,1002.68
2018-08-25T00:56:52.657Z,1002.66
2018-08-25T00:57:28.128Z,1002.71
2018-08-25T00:58:03.422Z,1002.65
2018-08-25T00:58:38.663Z,1002.69
2018-08-25T00:59:13.985Z,1002.70
2018-08-25T00:59:49.434Z,1002.69
2018-08-25T01:00:24.975Z,1002.66
2018-08-25T01:01:00.453Z,1002.69
2018-08-25T01:01:36.152Z,1002.69
2018-08-25T01:02:11.921Z,1002.69
2018-08-25T01:02:47.762Z,1002.67
2018-08-25T01:03:23.338Z,1002.66
2018-08-25T01:03:59.685Z,1002.64
2018-08-25T01:04:35.349Z,1002.68
2018-08-25T01:05:10.702Z,1002.66
2018-08-25T01:05:46.570Z,1002.64
2018-08-25T01:06:21.749Z,1002.67
2018-08-25T01:06:56.997Z,1002.66
2018-08-25T01:07:32.676Z,1002.67
2018-08-25T01:08:07.840Z,1002.67
2018-08-25T01:08:43.416Z,1002.63
2018-08-25T01:09:20.249Z,1002.67
2018-08-25T01:09:56.064Z,1002.68
2018-08-25T01:10:31.415Z,1002.65
2018-08-25T01:11:06.781Z,1002.64
2018-08-25T01:11:42.149Z,1002.63
2018-08-25T01:12:18.266Z,1002.66
2018-08-25T01:12:54.097Z,1002.63
2018-08-25T01:13:29.551Z,1002.63
2018-08-25T01:14:04.795Z,1002.60
2018-08-25T01:14:40.269Z,1002.62
2018-08-25T01:15:22.604Z,1002.62
2018-08-25T01:15:58.188Z,1002.59
2018-08-25T01:16:33.548Z,1002.61
2018-08-25T01:17:09.252Z,1002.58
2018-08-25T01:17:44.905Z,1002.58
2018-08-25T01:18:20.562Z,1002.61
2018-08-25T01:18:56.315Z,1002.55
2018-08-25T01:19:31.856Z,1002.56
2018-08-25T01:20:07.110Z,1002.56
2018-08-25T01:20:43.066Z,1002.55
2018-08-25T01:21:18.523Z,1002.54
2018-08-25T01:21:54.512Z,1002.51
2018-08-25T01:22:29.976Z,1002.56
2018-08-25T01:23:05.453Z,1002.53
2018-08-25T01:23:40.737Z,1002.52
2018-08-25T01:24:16.196Z,1002.53
2018-08-25T01:24:51.992Z,1002.52
2018-08-25T01:25:27.323Z,1002.50
2018-08-25T01:26:02.475Z,1002.48
2018-08-25T01:26:38.037Z,1002.47
2018-08-25T01:27:13.430Z,1002.49
2018-08-25T01:27:48.982Z,1002.47
2018-08-25T01:28:24.223Z,1002.48
2018-08-25T01:28:59.681Z,1002.47
2018-08-25T01:29:35.129Z,1002.52
2018-08-25T01:30:10.365Z,1002.49
2018-08-25T01:30:45.826Z,1002.52
2018-08-25T01:31:21.782Z,1002.50
2018-08-25T01:31:57.149Z,1002.51
2018-08-25T01:32:32.796Z,1002.51
2018-08-25T01:33:08.177Z,1002.49
2018-08-25T01:33:43.644Z,1002.51
2018-08-25T01:34:18.982Z,1002.53
2018-08-25T01:34:54.132Z,1002.47
2018-08-25T01:35:29.889Z,1002.46
2018-08-25T01:36:05.268Z,1002.53
2018-08-25T01:36:40.651Z,1002.47
2018-08-25T01:37:16.209Z,1002.50
2018-08-25T01:37:52.032Z,1002.46
2018-08-25T01:38:27.454Z,1002.49
2018-08-25T01:39:03.207Z,1002.47
2018-08-25T01:39:38.587Z,1002.49
2018-08-25T01:40:14.017Z,1002.46
2018-08-25T01:40:49.573Z,1002.44
2018-08-25T01:41:25.036Z,1002.46
2018-08-25T01:42:00.427Z,1002.46
2018-08-25T01:42:36.083Z,1002.43
2018-08-25T01:43:11.531Z,1002.41
2018-08-25T01:43:47.313Z,1002.42
2018-08-25T01:44:22.894Z,1002.41
2018-08-25T01:44:58.133Z,1002.42
2018-08-25T01:45:33.504Z,1002.43
2018-08-25T01:46:08.847Z,1002.39
2018-08-25T01:46:44.197Z,1002.42
2018-08-25T01:47:20.350Z,1002.43
2018-08-25T01:47:55.783Z,1002.38
2018-08-25T01:48:31.767Z,1002.43
2018-08-25T01:49:07.116Z,1002.40
2018-08-25T01:49:42.587Z,1002.39
2018-08-25T01:50:17.835Z,1002.43
2018-08-25T01:50:53.514Z,1002.39
2018-08-25T01:51:28.797Z,1002.36
2018-08-25T01:52:04.071Z,1002.36
2018-08-25T01:52:39.448Z,1002.36
2018-08-25T01:53:14.829Z,1002.31
2018-08-25T01:53:50.113Z,1002.36
2018-08-25T01:54:25.548Z,1002.31
2018-08-25T01:55:00.729Z,1002.31
2018-08-25T01:55:36.847Z,1002.31
2018-08-25T01:56:13.272Z,1002.28
2018-08-25T01:56:48.890Z,1002.27
2018-08-25T01:57:24.216Z,1002.28
2018-08-25T01:57:59.591Z,1002.29
2018-08-25T01:58:34.948Z,1002.25
2018-08-25T01:59:10.524Z,1002.26
2018-08-25T01:59:46.118Z,1002.24
2018-08-25T02:00:21.661Z,1002.26
2018-08-25T02:00:57.266Z,1002.27
2018-08-25T02:01:32.598Z,1002.24
2018-08-25T02:02:07.841Z,1002.27
2018-08-25T02:02:43.345Z,1002.23
2018-08-25T02:03:18.843Z,1002.22
2018-08-25T02:03:54.494Z,1002.21
2018-08-25T02:04:29.877Z,1002.20
2018-08-25T02:05:06.446Z,1002.25
2018-08-25T02:05:41.682Z,1002.24
2018-08-25T02:06:16.895Z,1002.19
2018-08-25T02:06:51.810Z,1002.21
2018-08-25T02:07:27.122Z,1002.18
2018-08-25T02:08:02.352Z,1002.17
2018-08-25T02:08:37.587Z,1002.12
2018-08-25T02:09:13.339Z,1002.11
2018-08-25T02:09:48.991Z,1002.07
2018-08-25T02:10:24.288Z,1002.03
2018-08-25T02:10:59.525Z,1002.07
2018-08-25T02:11:34.728Z,1002.07
2018-08-25T02:12:10.251Z,1002.07
2018-08-25T02:12:45.610Z,1002.04
2018-08-25T02:13:21.207Z,1002.04
2018-08-25T02:13:56.648Z,1002.04
2018-08-25T02:14:32.270Z,1002.06
2018-08-25T02:15:07.559Z,1002.00
2018-08-25T02:15:43.793Z,1002.03
2018-08-25T02:16:19.364Z,1002.02
2018-08-25T02:16:54.616Z,1002.00
2018-08-25T02:17:30.277Z,1001.97
2018-08-25T02:18:05.925Z,1001.98
2018-08-25T02:18:41.273Z,1001.93
2018-08-25T02:19:17.286Z,1001.89
2018-08-25T02:19:52.333Z,1001.91
2018-08-25T02:20:27.786Z,1001.88
2018-08-25T02:21:04.126Z,1001.88
2018-08-25T02:21:39.535Z,1001.87
2018-08-25T02:22:14.914Z,1001.84
2018-08-25T02:22:50.273Z,1001.85
2018-08-25T02:23:25.935Z,1001.81
2018-08-25T02:24:01.090Z,1001.87
2018-08-25T02:24:36.619Z,1001.92
2018-08-25T02:25:11.879Z,1001.88
2018-08-25T02:25:47.184Z,1001.89
2018-08-25T02:26:22.831Z,1001.91
2018-08-25T02:26:58.114Z,1001.84
2018-08-25T02:27:33.557Z,1001.82
2018-08-25T02:28:09.216Z,1001.88
2018-08-25T02:28:44.623Z,1001.86
2018-08-25T02:29:19.924Z,1001.83
2018-08-25T02:29:55.369Z,1001.86
2018-08-25T02:30:30.478Z,1001.84
2018-08-25T02:31:05.653Z,1001.82
2018-08-25T02:31:40.872Z,1001.84
2018-08-25T02:32:16.215Z,1001.85
2018-08-25T02:32:51.869Z,1001.82
2018-08-25T02:33:27.371Z,1001.82
2018-08-25T02:34:02.493Z,1001.78
2018-08-25T02:34:37.632Z,1001.77
2018-08-25T02:35:13.262Z,1001.74
2018-08-25T02:35:48.902Z,1001.75
2018-08-25T02:36:24.227Z,1001.74
2018-08-25T02:36:59.473Z,1001.77
2018-08-25T02:37:34.999Z,1001.74
2018-08-25T02:38:10.377Z,1001.73
2018-08-25T02:38:45.803Z,1001.72
2018-08-25T02:39:21.111Z,1001.67
2018-08-25T02:39:56.582Z,1001.69
2018-08-25T02:40:32.110Z,1001.68
2018-08-25T02:41:07.360Z,1001.65
2018-08-25T02:41:42.821Z,1001.69
2018-08-25T02:42:18.089Z,1001.68
2018-08-25T02:42:53.418Z,1001.59
2018-08-25T02:43:28.936Z,1001.62
2018-08-25T02:44:04.999Z,1001.57
2018-08-25T02:44:40.218Z,1001.60
2018-08-25T02:45:15.583Z,1001.60
2018-08-25T02:45:50.968Z,1001.58
2018-08-25T02:46:26.092Z,1001.58
2018-08-25T02:47:01.876Z,1001.58
2018-08-25T02:47:37.207Z,1001.53
2018-08-25T02:48:12.892Z,1001.56
2018-08-25T02:48:48.155Z,1001.52
2018-08-25T02:49:23.589Z,1001.54
2018-08-25T02:49:59.410Z,1001.53
2018-08-25T02:50:36.023Z,1001.56
2018-08-25T02:51:11.245Z,1001.56
2018-08-25T02:51:47.386Z,1001.48
2018-08-25T02:52:22.716Z,1001.48
2018-08-25T02:52:58.187Z,1001.57
2018-08-25T02:53:33.819Z,1001.50
2018-08-25T02:54:09.532Z,1001.54
2018-08-25T02:54:45.076Z,1001.55
2018-08-25T02:55:20.383Z,1001.55
2018-08-25T02:55:55.836Z,1001.56
2018-08-25T02:56:31.248Z,1001.51
2018-08-25T02:57:06.773Z,1001.55
2018-08-25T02:57:42.282Z,1001.55
2018-08-25T02:58:17.425Z,1001.53
2018-08-25T02:58:52.538Z,1001.56
2018-08-25T02:59:27.844Z,1001.52
2018-08-25T03:00:03.206Z,1001.51
2018-08-25T03:00:38.409Z,1001.49
2018-08-25T03:01:13.688Z,1001.54
2018-08-25T03:01:49.454Z,1001.48
2018-08-25T03:02:24.811Z,1001.48
2018-08-25T03:03:00.300Z,1001.47
2018-08-25T03:03:36.041Z,1001.45
2018-08-25T03:04:11.389Z,1001.44
2018-08-25T03:04:46.953Z,1001.38
2018-08-25T03:05:22.310Z,1001.43
2018-08-25T03:05:57.776Z,1001.40
2018-08-25T03:06:33.368Z,1001.42
2018-08-25T03:07:09.076Z,1001.40
2018-08-25T03:07:44.511Z,1001.39
2018-08-25T03:08:20.119Z,1001.36
2018-08-25T03:08:55.601Z,1001.33
2018-08-25T03:09:31.091Z,1001.36
2018-08-25T03:10:06.455Z,1001.37
2018-08-25T03:10:41.585Z,1001.33
2018-08-25T03:11:16.924Z,1001.36
2018-08-25T03:11:52.082Z,1001.40
2018-08-25T03:12:27.440Z,1001.39
2018-08-25T03:13:03.215Z,1001.37
2018-08-25T03:13:38.760Z,1001.43
2018-08-25T03:14:13.980Z,1001.46
2018-08-25T03:14:49.401Z,1001.37
2018-08-25T03:15:24.761Z,1001.38
2018-08-25T03:15:59.982Z,1001.35
2018-08-25T03:16:35.400Z,1001.34
2018-08-25T03:17:10.945Z,1001.37
2018-08-25T03:17:46.475Z,1001.31
2018-08-25T03:18:21.608Z,1001.28
2018-08-25T03:18:56.982Z,1001.27
2018-08-25T03:19:32.367Z,1001.27
2018-08-25T03:20:07.386Z,1001.26
2018-08-25T03:20:45.578Z,1001.22
2018-08-25T03:21:20.916Z,1001.22
2018-08-25T03:21:56.543Z,1001.25
2018-08-25T03:22:31.552Z,1001.23
2018-08-25T03:23:06.876Z,1001.19
2018-08-25T03:23:42.491Z,1001.17
2018-08-25T03:24:17.930Z,1001.17
2018-08-25T03:24:53.130Z,1001.17
2018-08-25T03:25:28.340Z,1001.16
2018-08-25T03:26:03.747Z,1001.16
2018-08-25T03:26:39.047Z,1001.13
2018-08-25T03:27:14.377Z,1001.11
2018-08-25T03:27:49.767Z,1001.13
2018-08-25T03:28:25.225Z,1001.15
2018-08-25T03:29:00.763Z,1001.13
2018-08-25T03:29:36.007Z,1001.14
2018-08-25T03:30:11.170Z,1001.16
2018-08-25T03:30:46.579Z,1001.14
2018-08-25T03:31:22.018Z,1001.18
2018-08-25T03:31:57.341Z,1001.20
2018-08-25T03:32:32.451Z,1001.21
2018-08-25T03:33:08.185Z,1001.24
2018-08-25T03:33:43.306Z,1001.26
2018-08-25T03:34:18.549Z,1001.34
2018-08-25T03:34:53.976Z,1001.38
2018-08-25T03:35:29.279Z,1001.38
2018-08-25T03:36:04.498Z,1001.31
2018-08-25T03:36:40.998Z,1001.43
2018-08-25T03:37:16.639Z,1001.44
2018-08-25T03:37:52.879Z,1001.43
2018-08-25T03:38:29.733Z,1001.44
2018-08-25T03:39:05.153Z,1001.43
2018-08-25T03:39:40.344Z,1001.46
2018-08-25T03:40:15.401Z,1001.48
2018-08-25T03:40:50.701Z,1001.48
2018-08-25T03:41:25.928Z,1001.55
2018-08-25T03:42:01.474Z,1001.57
2018-08-25T03:42:37.558Z,1001.52
2018-08-25T03:43:12.786Z,1001.61
2018-08-25T03:43:47.987Z,1001.55
2018-08-25T03:44:23.419Z,1001.60
2018-08-25T03:44:59.072Z,1001.57
2018-08-25T03:45:34.342Z,1001.56
2018-08-25T03:46:09.989Z,1001.56
2018-08-25T03:46:45.493Z,1001.55
2018-08-25T03:47:20.644Z,1001.52
2018-08-25T03:47:57.216Z,1001.53
2018-08-25T03:48:32.538Z,1001.52
2018-08-25T03:49:07.693Z,1001.46
2018-08-25T03:49:43.136Z,1001.51
2018-08-25T03:50:18.784Z,1001.51
2018-08-25T03:50:53.962Z,1001.50
2018-08-25T03:51:29.388Z,1001.44
2018-08-25T03:52:04.740Z,1001.44
2018-08-25T03:52:40.057Z,1001.47
2018-08-25T03:53:15.429Z,1001.39
2018-08-25T03:53:51.037Z,1001.38
2018-08-25T03:54:26.171Z,1001.37
2018-08-25T03:55:01.530Z,1001.34
2018-08-25T03:55:37.190Z,1001.34
2018-08-25T03:56:12.760Z,1001.30
2018-08-25T03:56:48.081Z,1001.28
2018-08-25T03:57:23.237Z,1001.33
2018-08-25T03:57:58.666Z,1001.33
2018-08-25T03:58:34.092Z,1001.27
2018-08-25T03:59:09.256Z,1001.26
2018-08-25T03:59:44.794Z,1001.23
2018-08-25T04:00:20.232Z,1001.27
2018-08-25T04:00:55.559Z,1001.20
2018-08-25T04:01:31.331Z,1001.16
2018-08-25T04:02:06.862Z,1001.14
2018-08-25T04:02:42.363Z,1001.11
2018-08-25T04:03:17.829Z,1001.09
2018-08-25T04:03:53.028Z,1001.20
2018-08-25T04:04:28.342Z,1001.17
2018-08-25T04:05:03.708Z,1001.16
2018-08-25T04:05:38.933Z,1001.17
2018-08-25T04:06:13.965Z,1001.15
2018-08-25T04:06:49.519Z,1001.10
2018-08-25T04:07:24.755Z,1001.12
2018-08-25T04:08:00.810Z,1001.18
2018-08-25T04:08:36.353Z,1001.14
2018-08-25T04:09:11.807Z,1001.12
2018-08-25T04:09:47.337Z,1001.15
2018-08-25T04:10:22.841Z,1001.16
2018-08-25T04:10:58.358Z,1001.10
2018-08-25T04:11:34.672Z,1001.14
2018-08-25T04:12:10.239Z,1001.10
2018-08-25T04:12:45.480Z,1001.13
2018-08-25T04:13:20.952Z,1001.12
2018-08-25T04:13:56.405Z,1001.09
2018-08-25T04:14:31.847Z,1001.07
2018-08-25T04:15:07.194Z,1001.08
2018-08-25T04:15:42.590Z,1000.99
2018-08-25T04:16:18.041Z,1001.13
2018-08-25T04:16:53.585Z,1001.08
2018-08-25T04:17:28.978Z,1001.04
2018-08-25T04:18:04.639Z,1001.03
2018-08-25T04:18:39.780Z,1000.98
2018-08-25T04:19:15.132Z,1000.98
2018-08-25T04:19:50.655Z,1001.08
2018-08-25T04:20:25.903Z,1001.07
2018-08-25T04:21:01.044Z,1001.02
2018-08-25T04:21:36.376Z,1001.00
2018-08-25T04:22:11.706Z,1001.03
2018-08-25T04:22:46.989Z,1001.06
2018-08-25T04:23:22.337Z,1001.11
2018-08-25T04:23:57.544Z,1001.14
2018-08-25T04:24:32.788Z,1001.15
2018-08-25T04:25:08.154Z,1001.12
2018-08-25T04:25:43.775Z,1001.06
2018-08-25T04:26:19.107Z,1001.09
2018-08-25T04:26:54.522Z,1000.99
2018-08-25T04:27:29.850Z,1001.03
2018-08-25T04:28:05.231Z,1000.97
2018-08-25T04:28:40.641Z,1001.00
2018-08-25T04:29:16.964Z,1000.97
2018-08-25T04:29:52.598Z,1000.98
2018-08-25T04:30:28.833Z,1000.98
2018-08-25T04:31:04.304Z,1000.99
2018-08-25T04:31:39.821Z,1000.96
2018-08-25T04:32:15.467Z,1000.94
2018-08-25T04:32:50.691Z,1000.91
2018-08-25T04:33:26.475Z,1000.95
2018-08-25T04:34:01.817Z,1001.00
2018-08-25T04:34:37.485Z,1001.01
2018-08-25T04:35:13.073Z,1001.01
2018-08-25T04:35:49.094Z,1000.99
2018-08-25T04:36:24.529Z,1000.99
2018-08-25T04:36:59.853Z,1000.99
2018-08-25T04:37:35.116Z,1001.02
2018-08-25T04:38:10.445Z,1001.03
2018-08-25T04:38:45.939Z,1001.05
2018-08-25T04:39:21.681Z,1001.00
2018-08-25T04:39:56.931Z,1001.00
2018-08-25T04:40:32.104Z,1001.01
2018-08-25T04:41:07.697Z,1001.01
2018-08-25T04:41:42.763Z,1000.99
2018-08-25T04:42:18.206Z,1001.05
2018-08-25T04:42:53.500Z,1001.03
2018-08-25T04:43:29.021Z,1001.05
2018-08-25T04:44:04.863Z,1000.98
2018-08-25T04:44:40.797Z,1001.01
2018-08-25T04:45:16.093Z,1000.93
2018-08-25T04:45:51.336Z,1000.92
2018-08-25T04:46:26.872Z,1000.96
2018-08-25T04:47:02.098Z,1000.95
2018-08-25T04:47:37.297Z,1000.94
2018-08-25T04:48:12.686Z,1000.93
2018-08-25T04:48:48.140Z,1000.90
2018-08-25T04:49:23.467Z,1000.94
2018-08-25T04:49:58.927Z,1000.87
2018-08-25T04:50:34.550Z,1000.90
2018-08-25T04:51:10.000Z,1000.91
2018-08-25T04:51:45.445Z,1000.94
2018-08-25T04:52:21.084Z,1000.98
2018-08-25T04:52:56.329Z,1001.07
2018-08-25T04:53:31.575Z,1000.98
2018-08-25T04:54:06.917Z,1000.99
2018-08-25T04:54:43.599Z,1000.94
2018-08-25T04:55:18.854Z,1000.94
2018-08-25T04:55:54.863Z,1000.98
2018-08-25T04:56:30.199Z,1000.94
2018-08-25T04:57:05.517Z,1000.95
2018-08-25T04:57:40.904Z,1000.96
2018-08-25T04:58:16.327Z,1001.00
2018-08-25T04:58:51.827Z,1000.96
2018-08-25T04:59:27.292Z,1000.99
2018-08-25T05:00:02.932Z,1000.99
2018-08-25T05:00:38.541Z,1000.99
2018-08-25T05:01:14.005Z,1000.96
2018-08-25T05:01:50.170Z,1000.97
2018-08-25T05:02:25.612Z,1000.98
2018-08-25T05:03:01.135Z,1000.95
2018-08-25T05:03:36.668Z,1000.99
2018-08-25T05:04:12.112Z,1000.97
2018-08-25T05:04:47.445Z,1001.00
2018-08-25T05:05:22.738Z,1000.95
2018-08-25T05:05:58.007Z,1000.97
2018-08-25T05:06:33.559Z,1000.95
2018-08-25T05:07:08.981Z,1001.02
2018-08-25T05:07:44.270Z,1001.00
2018-08-25T05:08:19.665Z,1001.03
2018-08-25T05:08:55.142Z,1001.05
2018-08-25T05:09:30.487Z,1001.06
2018-08-25T05:10:05.942Z,1001.04
2018-08-25T05:10:41.222Z,1001.07
2018-08-25T05:11:16.539Z,1001.03
2018-08-25T05:11:51.911Z,1001.03
2018-08-25T05:12:27.477Z,1001.10
2018-08-25T05:13:02.906Z,1001.02
2018-08-25T05:13:38.499Z,1001.00
2018-08-25T05:14:14.892Z,1001.02
2018-08-25T05:14:50.559Z,1000.98
2018-08-25T05:15:26.297Z,1001.04
2018-08-25T05:16:01.780Z,1001.00
2018-08-25T05:16:38.057Z,1000.92
2018-08-25T05:17:13.554Z,1000.97
2018-08-25T05:17:49.023Z,1001.00
2018-08-25T05:18:24.361Z,1001.01
2018-08-25T05:18:59.792Z,1000.96
2018-08-25T05:19:35.059Z,1000.94
2018-08-25T05:20:10.573Z,1000.94
2018-08-25T05:20:45.807Z,1000.92
2018-08-25T05:21:21.362Z,1001.00
2018-08-25T05:21:56.729Z,1000.89
2018-08-25T05:22:32.170Z,1000.97
2018-08-25T05:23:07.830Z,1000.97
2018-08-25T05:23:43.085Z,1000.97
2018-08-25T05:24:18.541Z,1000.98
2018-08-25T05:24:53.795Z,1000.93
2018-08-25T05:25:29.338Z,1000.95
2018-08-25T05:26:04.761Z,1000.96
2018-08-25T05:26:41.936Z,1000.95
2018-08-25T05:27:17.074Z,1000.95
2018-08-25T05:27:52.123Z,1000.95
2018-08-25T05:28:27.462Z,1000.95
2018-08-25T05:29:02.772Z,1000.97
2018-08-25T05:29:38.030Z,1000.98
2018-08-25T05:30:13.357Z,1001.06
2018-08-25T05:30:49.481Z,1001.06
2018-08-25T05:31:25.127Z,1000.99
2018-08-25T05:32:00.877Z,1001.02
2018-08-25T05:32:36.312Z,1001.03
2018-08-25T05:33:11.345Z,1000.98
2018-08-25T05:33:46.810Z,1001.00
2018-08-25T05:34:22.434Z,1001.05
2018-08-25T05:34:58.107Z,1001.00
2018-08-25T05:35:33.568Z,1000.96
2018-08-25T05:36:08.891Z,1000.96
2018-08-25T05:36:44.142Z,1001.01
2018-08-25T05:37:19.519Z,1000.95
2018-08-25T05:37:54.955Z,1000.91
2018-08-25T05:38:30.327Z,1000.96
2018-08-25T05:39:05.672Z,1000.89
2018-08-25T05:39:41.396Z,1000.92
2018-08-25T05:40:16.765Z,1000.98
2018-08-25T05:40:52.317Z,1001.04
2018-08-25T05:41:27.766Z,1001.02
2018-08-25T05:42:03.234Z,1001.03
2018-08-25T05:42:39.314Z,1001.03
2018-08-25T05:43:14.779Z,1000.96
2018-08-25T05:43:50.122Z,1001.07
2018-08-25T05:44:25.441Z,1001.01
2018-08-25T05:45:01.090Z,1001.04
2018-08-25T05:45:36.521Z,1001.05
2018-08-25T05:46:12.674Z,1001.04
2018-08-25T05:46:48.141Z,1001.14
2018-08-25T05:47:23.483Z,1001.04
2018-08-25T05:47:59.150Z,1001.02
2018-08-25T05:48:34.561Z,1001.00
2018-08-25T05:49:09.838Z,1001.06
2018-08-25T05:49:45.397Z,1001.06
2018-08-25T05:50:20.713Z,1001.07
2018-08-25T05:50:55.895Z,1001.07
2018-08-25T05:51:31.248Z,1001.06
2018-08-25T05:52:06.684Z,1001.01
2018-08-25T05:52:42.033Z,1000.97
2018-08-25T05:53:17.618Z,1001.01
2018-08-25T05:53:53.585Z,1001.04
2018-08-25T05:54:29.010Z,1001.03
2018-08-25T05:55:05.268Z,1001.10
2018-08-25T05:55:40.584Z,1001.07
2018-08-25T05:56:16.020Z,1001.10
2018-08-25T05:56:51.179Z,1001.10
2018-08-25T05:57:26.692Z,1001.06
2018-08-25T05:58:02.342Z,1001.05
2018-08-25T05:58:38.411Z,1001.01
2018-08-25T05:59:13.863Z,1001.04
2018-08-25T05:59:49.214Z,1001.08
2018-08-25T06:00:24.526Z,1001.05
2018-08-25T06:00:59.900Z,1001.07
2018-08-25T06:01:36.690Z,1001.06
2018-08-25T06:02:11.938Z,1001.08
2018-08-25T06:02:47.410Z,1001.01
2018-08-25T06:03:22.729Z,1001.02
2018-08-25T06:03:58.004Z,1001.06
2018-08-25T06:04:33.429Z,1001.02
2018-08-25T06:05:09.000Z,1001.03
2018-08-25T06:05:44.647Z,1001.01
2018-08-25T06:06:20.063Z,1001.04
2018-08-25T06:06:55.525Z,1001.01
2018-08-25T06:07:30.946Z,1001.03
2018-08-25T06:08:06.184Z,1001.10
2018-08-25T06:08:41.502Z,1001.05
2018-08-25T06:09:16.777Z,1001.13
2018-08-25T06:09:52.155Z,1001.08
2018-08-25T06:10:27.678Z,1001.12
2018-08-25T06:11:02.931Z,1001.12
2018-08-25T06:11:38.364Z,1001.08
2018-08-25T06:12:13.827Z,1001.10
2018-08-25T06:12:49.274Z,1001.13
2018-08-25T06:13:24.412Z,1001.13
2018-08-25T06:13:59.704Z,1001.11
2018-08-25T06:14:35.148Z,1001.13
2018-08-25T06:15:10.604Z,1001.12
2018-08-25T06:15:45.858Z,1001.12
2018-08-25T06:16:21.211Z,1001.14
2018-08-25T06:16:56.450Z,1001.11
2018-08-25T06:17:31.793Z,1001.17
2018-08-25T06:18:07.109Z,1001.15
2018-08-25T06:18:42.570Z,1001.08
2018-08-25T06:19:18.073Z,1001.14
2018-08-25T06:19:53.618Z,1001.17
2018-08-25T06:20:28.842Z,1001.18
2018-08-25T06:21:04.290Z,1001.19
2018-08-25T06:21:39.701Z,1001.19
2018-08-25T06:22:15.441Z,1001.21
2018-08-25T06:22:50.678Z,1001.24
2018-08-25T06:23:25.934Z,1001.20
2018-08-25T06:24:01.393Z,1001.23
2018-08-25T06:24:36.635Z,1001.18
2018-08-25T06:25:11.827Z,1001.15
2018-08-25T06:25:47.671Z,1001.27
2018-08-25T06:26:23.124Z,1001.25
2018-08-25T06:26:58.490Z,1001.13
2018-08-25T06:27:33.721Z,1001.18
2018-08-25T06:28:09.100Z,1001.16
2018-08-25T06:28:44.253Z,1001.22
2018-08-25T06:29:19.769Z,1001.21
2018-08-25T06:29:55.179Z,1001.22
2018-08-25T06:30:30.631Z,1001.24
2018-08-25T06:31:06.172Z,1001.25
2018-08-25T06:31:41.799Z,1001.24
2018-08-25T06:32:17.152Z,1001.25
2018-08-25T06:32:52.585Z,1001.24
2018-08-25T06:33:28.006Z,1001.28
2018-08-25T06:34:03.439Z,1001.33
2018-08-25T06:34:38.864Z,1001.22
2018-08-25T06:35:14.659Z,1001.30
2018-08-25T06:35:50.034Z,1001.32
2018-08-25T06:36:25.562Z,1001.23
2018-08-25T06:37:00.908Z,1001.20
2018-08-25T06:37:36.256Z,1001.27
2018-08-25T06:38:11.601Z,1001.31
2018-08-25T06:38:46.961Z,1001.36
2018-08-25T06:39:22.191Z,1001.42
2018-08-25T06:39:57.556Z,1001.35
2018-08-25T06:40:32.800Z,1001.35
2018-08-25T06:41:08.043Z,1001.40
2018-08-25T06:41:43.373Z,1001.39
2018-08-25T06:42:19.214Z,1001.37
2018-08-25T06:42:54.371Z,1001.42
2018-08-25T06:43:29.593Z,1001.32
2018-08-25T06:44:04.911Z,1001.38
2018-08-25T06:44:40.231Z,1001.39
2018-08-25T06:45:15.658Z,1001.40
2018-08-25T06:45:51.205Z,1001.44
2018-08-25T06:46:26.675Z,1001.34
2018-08-25T06:47:02.399Z,1001.35
2018-08-25T06:47:37.809Z,1001.37
2018-08-25T06:48:13.272Z,1001.43
2018-08-25T06:48:48.478Z,1001.28
2018-08-25T06:49:23.932Z,1001.39
2018-08-25T06:49:59.381Z,1001.38
2018-08-25T06:50:34.895Z,1001.46
2018-08-25T06:51:10.259Z,1001.35
2018-08-25T06:51:45.610Z,1001.41
2018-08-25T06:52:21.338Z,1001.49
2018-08-25T06:52:56.578Z,1001.45
2018-08-25T06:53:31.813Z,1001.46
2018-08-25T06:54:07.183Z,1001.44
2018-08-25T06:54:42.704Z,1001.41
2018-08-25T06:55:18.249Z,1001.40
2018-08-25T06:55:53.962Z,1001.46
2018-08-25T06:56:29.396Z,1001.38
2018-08-25T06:57:04.981Z,1001.42
2018-08-25T06:57:40.593Z,1001.46
2018-08-25T06:58:16.327Z,1001.43
2018-08-25T06:58:51.675Z,1001.51
2018-08-25T06:59:27.174Z,1001.47
2018-08-25T07:00:02.496Z,1001.46
2018-08-25T07:00:39.028Z,1001.49
2018-08-25T07:01:15.055Z,1001.57
2018-08-25T07:01:50.588Z,1001.48
2018-08-25T07:02:26.057Z,1001.49
2018-08-25T07:03:01.596Z,1001.53
2018-08-25T07:03:37.213Z,1001.44
2018-08-25T07:04:12.453Z,1001.52
2018-08-25T07:04:47.850Z,1001.50
2018-08-25T07:05:23.502Z,1001.55
2018-08-25T07:05:59.214Z,1001.49
2018-08-25T07:06:34.463Z,1001.53
2018-08-25T07:07:09.913Z,1001.49
2018-08-25T07:07:45.286Z,1001.58
2018-08-25T07:08:20.716Z,1001.52
2018-08-25T07:08:56.060Z,1001.54